sensor_id;sensor_type;location;lat;lon;timestamp;temperature;humidity
65752;DHT22;52486;51.098;13.770;2022-07-30T00:01:04;26.50;42.30
65752;DHT22;52486;51.098;13.770;2022-07-30T00:03:29;26.50;42.30
65752;DHT22;52486;51.098;13.770;2022-07-30T00:05:56;26.50;42.30
65752;DHT22;52486;51.098;13.770;2022-07-30T00:08:22;26.50;42.30
65752;DHT22;52486;51.098;13.770;2022-07-30T00:10:48;26.50;42.30
65752;DHT22;52486;51.098;13.770;2022-07-30T00:13:13;26.50;42.30
65752;DHT22;52486;51.098;13.770;2022-07-30T00:15:39;26.50;42.30
65752;DHT22;52486;51.098;13.770;2022-07-30T00:18:04;26.50;42.40
65752;DHT22;52486;51.098;13.770;2022-07-30T00:20:30;26.50;42.40
65752;DHT22;52486;51.098;13.770;2022-07-30T00:22:55;26.50;42.40
65752;DHT22;52486;51.098;13.770;2022-07-30T00:25:21;26.50;42.40
65752;DHT22;52486;51.098;13.770;2022-07-30T00:27:47;26.50;42.40
65752;DHT22;52486;51.098;13.770;2022-07-30T00:30:12;26.50;42.40
65752;DHT22;52486;51.098;13.770;2022-07-30T00:32:38;26.50;42.40
65752;DHT22;52486;51.098;13.770;2022-07-30T00:35:04;26.50;42.40
65752;DHT22;52486;51.098;13.770;2022-07-30T00:37:29;26.50;42.40
65752;DHT22;52486;51.098;13.770;2022-07-30T00:39:55;26.50;42.40
65752;DHT22;52486;51.098;13.770;2022-07-30T00:42:20;26.50;42.40
65752;DHT22;52486;51.098;13.770;2022-07-30T00:44:50;26.50;42.40
65752;DHT22;52486;51.098;13.770;2022-07-30T00:47:16;26.50;42.50
65752;DHT22;52486;51.098;13.770;2022-07-30T00:49:42;26.50;42.50
65752;DHT22;52486;51.098;13.770;2022-07-30T00:52:07;26.50;42.50
65752;DHT22;52486;51.098;13.770;2022-07-30T00:54:33;26.50;42.50
65752;DHT22;52486;51.098;13.770;2022-07-30T00:56:58;26.50;42.50
65752;DHT22;52486;51.098;13.770;2022-07-30T00:59:24;26.50;42.50
65752;DHT22;52486;51.098;13.770;2022-07-30T01:01:52;26.50;42.60
65752;DHT22;52486;51.098;13.770;2022-07-30T01:04:17;26.50;42.50
65752;DHT22;52486;51.098;13.770;2022-07-30T01:06:43;26.50;42.50
65752;DHT22;52486;51.098;13.770;2022-07-30T01:09:08;26.50;42.50
65752;DHT22;52486;51.098;13.770;2022-07-30T01:11:37;26.50;42.50
65752;DHT22;52486;51.098;13.770;2022-07-30T01:14:04;26.50;42.60
65752;DHT22;52486;51.098;13.770;2022-07-30T01:16:31;26.50;42.60
65752;DHT22;52486;51.098;13.770;2022-07-30T01:18:56;26.50;42.60
65752;DHT22;52486;51.098;13.770;2022-07-30T01:21:43;26.50;42.60
65752;DHT22;52486;51.098;13.770;2022-07-30T01:26:54;26.50;42.60
65752;DHT22;52486;51.098;13.770;2022-07-30T01:29:20;26.50;42.60
65752;DHT22;52486;51.098;13.770;2022-07-30T01:31:46;26.50;42.60
65752;DHT22;52486;51.098;13.770;2022-07-30T01:34:13;26.50;42.60
65752;DHT22;52486;51.098;13.770;2022-07-30T01:36:41;26.50;42.60
65752;DHT22;52486;51.098;13.770;2022-07-30T01:39:07;26.50;42.60
65752;DHT22;52486;51.098;13.770;2022-07-30T01:41:33;26.50;42.60
65752;DHT22;52486;51.098;13.770;2022-07-30T01:43:59;26.50;42.70
65752;DHT22;52486;51.098;13.770;2022-07-30T01:46:25;26.50;42.70
65752;DHT22;52486;51.098;13.770;2022-07-30T01:48:51;26.50;42.70
65752;DHT22;52486;51.098;13.770;2022-07-30T01:51:17;26.50;42.70
65752;DHT22;52486;51.098;13.770;2022-07-30T01:53:43;26.50;42.70
65752;DHT22;52486;51.098;13.770;2022-07-30T01:56:10;26.50;42.70
65752;DHT22;52486;51.098;13.770;2022-07-30T01:58:37;26.50;42.70
65752;DHT22;52486;51.098;13.770;2022-07-30T02:01:04;26.50;42.70
65752;DHT22;52486;51.098;13.770;2022-07-30T02:03:30;26.50;42.70
65752;DHT22;52486;51.098;13.770;2022-07-30T02:06:00;26.50;42.70
65752;DHT22;52486;51.098;13.770;2022-07-30T02:08:39;26.50;42.70
65752;DHT22;52486;51.098;13.770;2022-07-30T02:13:31;26.50;42.80
65752;DHT22;52486;51.098;13.770;2022-07-30T02:16:30;26.50;42.80
65752;DHT22;52486;51.098;13.770;2022-07-30T02:21:27;26.50;42.80
65752;DHT22;52486;51.098;13.770;2022-07-30T02:23:56;26.50;42.80
65752;DHT22;52486;51.098;13.770;2022-07-30T02:26:22;26.50;42.80
65752;DHT22;52486;51.098;13.770;2022-07-30T02:28:50;26.50;42.80
65752;DHT22;52486;51.098;13.770;2022-07-30T02:31:19;26.50;42.80
65752;DHT22;52486;51.098;13.770;2022-07-30T02:33:47;26.50;43.50
65752;DHT22;52486;51.098;13.770;2022-07-30T02:36:13;26.50;42.90
65752;DHT22;52486;51.098;13.770;2022-07-30T02:38:39;26.50;42.80
65752;DHT22;52486;51.098;13.770;2022-07-30T02:41:06;26.50;42.90
65752;DHT22;52486;51.098;13.770;2022-07-30T02:43:32;26.50;42.90
65752;DHT22;52486;51.098;13.770;2022-07-30T02:45:58;26.50;42.90
65752;DHT22;52486;51.098;13.770;2022-07-30T02:48:24;26.50;42.90
65752;DHT22;52486;51.098;13.770;2022-07-30T02:50:52;26.50;42.90
65752;DHT22;52486;51.098;13.770;2022-07-30T02:53:18;26.50;42.90
65752;DHT22;52486;51.098;13.770;2022-07-30T02:55:45;26.50;42.90
65752;DHT22;52486;51.098;13.770;2022-07-30T02:58:11;26.50;42.90
65752;DHT22;52486;51.098;13.770;2022-07-30T03:00:40;26.50;42.90
65752;DHT22;52486;51.098;13.770;2022-07-30T03:03:06;26.50;42.90
65752;DHT22;52486;51.098;13.770;2022-07-30T03:05:32;26.50;42.90
65752;DHT22;52486;51.098;13.770;2022-07-30T03:07:58;26.50;42.90
65752;DHT22;52486;51.098;13.770;2022-07-30T03:10:24;26.50;43.00
65752;DHT22;52486;51.098;13.770;2022-07-30T03:12:50;26.50;43.00
65752;DHT22;52486;51.098;13.770;2022-07-30T03:15:16;26.50;43.00
65752;DHT22;52486;51.098;13.770;2022-07-30T03:17:42;26.50;43.00
65752;DHT22;52486;51.098;13.770;2022-07-30T03:20:12;26.50;43.00
65752;DHT22;52486;51.098;13.770;2022-07-30T03:22:43;26.50;43.00
65752;DHT22;52486;51.098;13.770;2022-07-30T03:25:12;26.50;43.00
65752;DHT22;52486;51.098;13.770;2022-07-30T03:27:39;26.50;43.00
65752;DHT22;52486;51.098;13.770;2022-07-30T03:30:05;26.50;43.00
65752;DHT22;52486;51.098;13.770;2022-07-30T03:32:31;26.50;43.00
65752;DHT22;52486;51.098;13.770;2022-07-30T03:34:58;26.50;43.10
65752;DHT22;52486;51.098;13.770;2022-07-30T03:37:25;26.50;43.00
65752;DHT22;52486;51.098;13.770;2022-07-30T03:39:51;26.50;43.10
65752;DHT22;52486;51.098;13.770;2022-07-30T03:42:18;26.50;43.10
65752;DHT22;52486;51.098;13.770;2022-07-30T03:44:44;26.50;43.10
65752;DHT22;52486;51.098;13.770;2022-07-30T03:47:10;26.50;43.10
65752;DHT22;52486;51.098;13.770;2022-07-30T03:49:36;26.50;43.10
65752;DHT22;52486;51.098;13.770;2022-07-30T03:52:01;26.50;43.10
65752;DHT22;52486;51.098;13.770;2022-07-30T03:54:29;26.50;43.10
65752;DHT22;52486;51.098;13.770;2022-07-30T03:56:55;26.50;43.10
65752;DHT22;52486;51.098;13.770;2022-07-30T03:59:21;26.50;43.20
65752;DHT22;52486;51.098;13.770;2022-07-30T04:01:46;26.50;43.90
65752;DHT22;52486;51.098;13.770;2022-07-30T04:04:12;26.50;43.10
65752;DHT22;52486;51.098;13.770;2022-07-30T04:06:38;26.50;43.20
65752;DHT22;52486;51.098;13.770;2022-07-30T04:09:10;26.50;43.20
65752;DHT22;52486;51.098;13.770;2022-07-30T04:11:36;26.40;43.10
65752;DHT22;52486;51.098;13.770;2022-07-30T04:14:02;26.40;43.10
65752;DHT22;52486;51.098;13.770;2022-07-30T04:19:24;26.40;43.20
65752;DHT22;52486;51.098;13.770;2022-07-30T04:21:51;26.50;43.20
65752;DHT22;52486;51.098;13.770;2022-07-30T04:24:17;26.50;43.20
65752;DHT22;52486;51.098;13.770;2022-07-30T04:26:44;26.50;43.30
65752;DHT22;52486;51.098;13.770;2022-07-30T04:29:10;26.50;43.30
65752;DHT22;52486;51.098;13.770;2022-07-30T04:31:36;26.50;43.30
65752;DHT22;52486;51.098;13.770;2022-07-30T04:34:02;26.40;43.20
65752;DHT22;52486;51.098;13.770;2022-07-30T04:36:29;26.50;43.30
65752;DHT22;52486;51.098;13.770;2022-07-30T04:38:55;26.40;43.30
65752;DHT22;52486;51.098;13.770;2022-07-30T04:41:20;26.40;43.30
65752;DHT22;52486;51.098;13.770;2022-07-30T04:43:46;26.50;43.40
65752;DHT22;52486;51.098;13.770;2022-07-30T04:46:12;26.50;43.40
65752;DHT22;52486;51.098;13.770;2022-07-30T04:48:38;26.50;43.40
65752;DHT22;52486;51.098;13.770;2022-07-30T04:51:04;26.40;43.30
65752;DHT22;52486;51.098;13.770;2022-07-30T04:53:33;26.40;43.30
65752;DHT22;52486;51.098;13.770;2022-07-30T04:55:59;26.40;43.40
65752;DHT22;52486;51.098;13.770;2022-07-30T04:58:25;26.50;43.40
65752;DHT22;52486;51.098;13.770;2022-07-30T05:00:52;26.40;43.40
65752;DHT22;52486;51.098;13.770;2022-07-30T05:03:18;26.40;43.40
65752;DHT22;52486;51.098;13.770;2022-07-30T05:05:45;26.40;43.40
65752;DHT22;52486;51.098;13.770;2022-07-30T05:08:12;26.50;43.60
65752;DHT22;52486;51.098;13.770;2022-07-30T05:10:37;26.40;43.50
65752;DHT22;52486;51.098;13.770;2022-07-30T05:13:03;26.40;43.50
65752;DHT22;52486;51.098;13.770;2022-07-30T05:15:28;26.40;43.50
65752;DHT22;52486;51.098;13.770;2022-07-30T05:17:54;26.40;43.50
65752;DHT22;52486;51.098;13.770;2022-07-30T05:20:19;26.50;43.60
65752;DHT22;52486;51.098;13.770;2022-07-30T05:22:45;26.40;43.50
65752;DHT22;52486;51.098;13.770;2022-07-30T05:25:10;26.40;43.50
65752;DHT22;52486;51.098;13.770;2022-07-30T05:27:36;26.50;43.60
65752;DHT22;52486;51.098;13.770;2022-07-30T05:30:02;26.50;43.60
65752;DHT22;52486;51.098;13.770;2022-07-30T05:32:28;26.40;43.60
65752;DHT22;52486;51.098;13.770;2022-07-30T05:34:53;26.40;43.50
65752;DHT22;52486;51.098;13.770;2022-07-30T05:37:22;26.50;43.60
65752;DHT22;52486;51.098;13.770;2022-07-30T05:39:48;26.40;43.50
65752;DHT22;52486;51.098;13.770;2022-07-30T05:42:13;26.40;43.50
65752;DHT22;52486;51.098;13.770;2022-07-30T05:44:39;26.40;43.60
65752;DHT22;52486;51.098;13.770;2022-07-30T05:47:04;26.40;43.50
65752;DHT22;52486;51.098;13.770;2022-07-30T05:49:30;26.40;43.60
65752;DHT22;52486;51.098;13.770;2022-07-30T05:51:55;26.40;43.60
65752;DHT22;52486;51.098;13.770;2022-07-30T05:54:21;26.40;43.60
65752;DHT22;52486;51.098;13.770;2022-07-30T05:56:47;26.40;43.60
65752;DHT22;52486;51.098;13.770;2022-07-30T05:59:12;26.40;43.60
65752;DHT22;52486;51.098;13.770;2022-07-30T06:01:38;26.50;43.70
65752;DHT22;52486;51.098;13.770;2022-07-30T06:04:03;26.40;43.70
65752;DHT22;52486;51.098;13.770;2022-07-30T06:06:29;26.50;43.80
65752;DHT22;52486;51.098;13.770;2022-07-30T06:08:54;26.40;43.70
65752;DHT22;52486;51.098;13.770;2022-07-30T06:11:20;26.40;43.70
65752;DHT22;52486;51.098;13.770;2022-07-30T06:13:45;26.40;43.70
65752;DHT22;52486;51.098;13.770;2022-07-30T06:16:11;26.40;43.70
65752;DHT22;52486;51.098;13.770;2022-07-30T06:18:37;26.50;43.80
65752;DHT22;52486;51.098;13.770;2022-07-30T06:21:02;26.50;43.80
65752;DHT22;52486;51.098;13.770;2022-07-30T06:23:28;26.40;43.70
65752;DHT22;52486;51.098;13.770;2022-07-30T06:25:53;26.50;43.90
65752;DHT22;52486;51.098;13.770;2022-07-30T06:28:19;26.40;44.50
65752;DHT22;52486;51.098;13.770;2022-07-30T06:30:44;26.40;43.80
65752;DHT22;52486;51.098;13.770;2022-07-30T06:33:12;26.40;43.80
65752;DHT22;52486;51.098;13.770;2022-07-30T06:35:37;26.40;43.80
65752;DHT22;52486;51.098;13.770;2022-07-30T06:38:03;26.40;43.80
65752;DHT22;52486;51.098;13.770;2022-07-30T06:40:28;26.40;43.90
65752;DHT22;52486;51.098;13.770;2022-07-30T06:42:54;26.50;43.90
65752;DHT22;52486;51.098;13.770;2022-07-30T06:45:19;26.50;43.90
65752;DHT22;52486;51.098;13.770;2022-07-30T06:47:45;26.50;43.90
65752;DHT22;52486;51.098;13.770;2022-07-30T06:50:10;26.50;44.00
65752;DHT22;52486;51.098;13.770;2022-07-30T06:52:36;26.50;44.00
65752;DHT22;52486;51.098;13.770;2022-07-30T06:55:02;26.50;44.00
65752;DHT22;52486;51.098;13.770;2022-07-30T06:57:27;26.50;44.00
65752;DHT22;52486;51.098;13.770;2022-07-30T06:59:53;26.50;44.00
65752;DHT22;52486;51.098;13.770;2022-07-30T07:02:18;26.50;44.00
65752;DHT22;52486;51.098;13.770;2022-07-30T07:04:44;26.50;44.00
65752;DHT22;52486;51.098;13.770;2022-07-30T07:07:09;26.50;44.00
65752;DHT22;52486;51.098;13.770;2022-07-30T07:09:35;26.50;44.00
65752;DHT22;52486;51.098;13.770;2022-07-30T07:12:01;26.50;44.10
65752;DHT22;52486;51.098;13.770;2022-07-30T07:14:26;26.50;44.10
65752;DHT22;52486;51.098;13.770;2022-07-30T07:16:52;26.50;44.00
65752;DHT22;52486;51.098;13.770;2022-07-30T07:19:17;26.50;44.00
65752;DHT22;52486;51.098;13.770;2022-07-30T07:21:43;26.50;44.10
65752;DHT22;52486;51.098;13.770;2022-07-30T07:24:09;26.50;44.10
65752;DHT22;52486;51.098;13.770;2022-07-30T07:26:34;26.50;44.10
65752;DHT22;52486;51.098;13.770;2022-07-30T07:29:00;26.50;44.10
65752;DHT22;52486;51.098;13.770;2022-07-30T07:31:25;26.50;44.10
65752;DHT22;52486;51.098;13.770;2022-07-30T07:33:51;26.50;44.10
65752;DHT22;52486;51.098;13.770;2022-07-30T07:36:22;26.50;44.10
65752;DHT22;52486;51.098;13.770;2022-07-30T07:38:47;26.50;44.10
65752;DHT22;52486;51.098;13.770;2022-07-30T07:41:13;26.50;44.10
65752;DHT22;52486;51.098;13.770;2022-07-30T07:43:38;26.50;44.10
65752;DHT22;52486;51.098;13.770;2022-07-30T07:46:05;26.50;44.10
65752;DHT22;52486;51.098;13.770;2022-07-30T07:48:30;26.50;44.10
65752;DHT22;52486;51.098;13.770;2022-07-30T07:50:56;26.50;44.10
65752;DHT22;52486;51.098;13.770;2022-07-30T07:53:22;26.50;44.20
65752;DHT22;52486;51.098;13.770;2022-07-30T07:55:47;26.50;44.10
65752;DHT22;52486;51.098;13.770;2022-07-30T07:58:13;26.50;44.10
65752;DHT22;52486;51.098;13.770;2022-07-30T08:00:39;26.50;44.10
65752;DHT22;52486;51.098;13.770;2022-07-30T08:03:04;26.50;44.10
65752;DHT22;52486;51.098;13.770;2022-07-30T08:05:30;26.50;44.10
65752;DHT22;52486;51.098;13.770;2022-07-30T08:07:55;26.50;44.10
65752;DHT22;52486;51.098;13.770;2022-07-30T08:10:22;26.50;44.10
65752;DHT22;52486;51.098;13.770;2022-07-30T08:12:47;26.50;44.10
65752;DHT22;52486;51.098;13.770;2022-07-30T08:15:13;26.50;44.10
65752;DHT22;52486;51.098;13.770;2022-07-30T08:17:42;26.50;44.10
65752;DHT22;52486;51.098;13.770;2022-07-30T08:20:09;26.50;44.10
65752;DHT22;52486;51.098;13.770;2022-07-30T08:22:34;26.50;44.10
65752;DHT22;52486;51.098;13.770;2022-07-30T08:25:00;26.50;44.10
65752;DHT22;52486;51.098;13.770;2022-07-30T08:27:26;26.50;44.20
65752;DHT22;52486;51.098;13.770;2022-07-30T08:29:51;26.50;44.20
65752;DHT22;52486;51.098;13.770;2022-07-30T08:32:17;26.60;44.20
65752;DHT22;52486;51.098;13.770;2022-07-30T08:34:42;26.60;44.20
65752;DHT22;52486;51.098;13.770;2022-07-30T08:37:08;26.60;44.20
65752;DHT22;52486;51.098;13.770;2022-07-30T08:39:33;26.50;44.10
65752;DHT22;52486;51.098;13.770;2022-07-30T08:41:59;26.50;44.10
65752;DHT22;52486;51.098;13.770;2022-07-30T08:44:26;26.60;44.20
65752;DHT22;52486;51.098;13.770;2022-07-30T08:46:53;26.60;44.20
65752;DHT22;52486;51.098;13.770;2022-07-30T08:49:20;26.50;44.20
65752;DHT22;52486;51.098;13.770;2022-07-30T08:51:47;26.60;44.20
65752;DHT22;52486;51.098;13.770;2022-07-30T08:54:13;26.60;44.20
65752;DHT22;52486;51.098;13.770;2022-07-30T08:56:38;26.60;44.20
65752;DHT22;52486;51.098;13.770;2022-07-30T08:59:04;26.60;44.20
65752;DHT22;52486;51.098;13.770;2022-07-30T09:01:29;26.60;44.20
65752;DHT22;52486;51.098;13.770;2022-07-30T09:03:55;26.60;44.20
65752;DHT22;52486;51.098;13.770;2022-07-30T09:06:21;26.60;44.20
65752;DHT22;52486;51.098;13.770;2022-07-30T09:08:46;26.60;44.20
65752;DHT22;52486;51.098;13.770;2022-07-30T09:11:12;26.60;44.20
65752;DHT22;52486;51.098;13.770;2022-07-30T09:13:38;26.60;44.20
65752;DHT22;52486;51.098;13.770;2022-07-30T09:16:06;26.60;44.20
65752;DHT22;52486;51.098;13.770;2022-07-30T09:18:33;26.60;44.20
65752;DHT22;52486;51.098;13.770;2022-07-30T09:21:00;26.60;44.20
65752;DHT22;52486;51.098;13.770;2022-07-30T09:23:26;26.60;44.20
65752;DHT22;52486;51.098;13.770;2022-07-30T09:25:52;26.60;44.20
65752;DHT22;52486;51.098;13.770;2022-07-30T09:28:28;26.60;44.20
65752;DHT22;52486;51.098;13.770;2022-07-30T09:30:55;26.60;44.20
65752;DHT22;52486;51.098;13.770;2022-07-30T09:33:30;26.60;44.20
65752;DHT22;52486;51.098;13.770;2022-07-30T09:35:56;26.60;44.20
65752;DHT22;52486;51.098;13.770;2022-07-30T09:38:22;26.60;44.20
65752;DHT22;52486;51.098;13.770;2022-07-30T09:40:51;26.60;44.20
65752;DHT22;52486;51.098;13.770;2022-07-30T09:43:17;26.60;44.20
65752;DHT22;52486;51.098;13.770;2022-07-30T09:45:52;26.60;44.20
65752;DHT22;52486;51.098;13.770;2022-07-30T09:48:20;26.60;44.20
65752;DHT22;52486;51.098;13.770;2022-07-30T09:50:49;26.60;44.20
65752;DHT22;52486;51.098;13.770;2022-07-30T09:53:15;26.60;44.20
65752;DHT22;52486;51.098;13.770;2022-07-30T09:55:40;26.60;44.20
65752;DHT22;52486;51.098;13.770;2022-07-30T09:58:06;26.60;44.20
65752;DHT22;52486;51.098;13.770;2022-07-30T10:00:33;26.60;44.20
65752;DHT22;52486;51.098;13.770;2022-07-30T10:02:59;26.60;44.20
65752;DHT22;52486;51.098;13.770;2022-07-30T10:05:25;26.60;44.60
65752;DHT22;52486;51.098;13.770;2022-07-30T10:07:55;26.60;44.20
65752;DHT22;52486;51.098;13.770;2022-07-30T10:10:22;26.60;44.20
65752;DHT22;52486;51.098;13.770;2022-07-30T10:12:51;26.60;44.20
65752;DHT22;52486;51.098;13.770;2022-07-30T10:15:18;26.60;44.20
65752;DHT22;52486;51.098;13.770;2022-07-30T10:17:44;26.60;44.20
65752;DHT22;52486;51.098;13.770;2022-07-30T10:20:10;26.60;44.20
65752;DHT22;52486;51.098;13.770;2022-07-30T10:22:36;26.60;44.20
65752;DHT22;52486;51.098;13.770;2022-07-30T10:25:02;26.60;44.20
65752;DHT22;52486;51.098;13.770;2022-07-30T10:27:28;26.60;44.20
65752;DHT22;52486;51.098;13.770;2022-07-30T10:29:54;26.70;44.30
65752;DHT22;52486;51.098;13.770;2022-07-30T10:32:20;26.60;44.30
65752;DHT22;52486;51.098;13.770;2022-07-30T10:34:46;26.70;44.30
65752;DHT22;52486;51.098;13.770;2022-07-30T10:37:11;26.70;44.40
65752;DHT22;52486;51.098;13.770;2022-07-30T10:39:38;26.60;44.20
65752;DHT22;52486;51.098;13.770;2022-07-30T10:42:10;26.70;44.30
65752;DHT22;52486;51.098;13.770;2022-07-30T10:47:25;26.70;44.30
65752;DHT22;52486;51.098;13.770;2022-07-30T10:50:08;26.60;44.30
65752;DHT22;52486;51.098;13.770;2022-07-30T10:52:47;26.60;44.30
65752;DHT22;52486;51.098;13.770;2022-07-30T10:55:26;26.60;44.30
65752;DHT22;52486;51.098;13.770;2022-07-30T10:57:58;26.70;44.40
65752;DHT22;52486;51.098;13.770;2022-07-30T11:00:24;26.60;44.30
65752;DHT22;52486;51.098;13.770;2022-07-30T11:05:34;26.70;44.50
65752;DHT22;52486;51.098;13.770;2022-07-30T11:08:34;26.60;44.40
65752;DHT22;52486;51.098;13.770;2022-07-30T11:10:52;26.70;44.50
65752;DHT22;52486;51.098;13.770;2022-07-30T11:13:17;26.70;44.40
65752;DHT22;52486;51.098;13.770;2022-07-30T11:16:03;26.70;44.40
65752;DHT22;52486;51.098;13.770;2022-07-30T11:18:28;26.70;44.40
65752;DHT22;52486;51.098;13.770;2022-07-30T11:21:13;26.70;44.40
65752;DHT22;52486;51.098;13.770;2022-07-30T11:23:40;26.70;44.40
65752;DHT22;52486;51.098;13.770;2022-07-30T11:26:07;26.70;44.40
65752;DHT22;52486;51.098;13.770;2022-07-30T11:28:34;26.70;44.40
65752;DHT22;52486;51.098;13.770;2022-07-30T11:31:03;26.70;44.40
65752;DHT22;52486;51.098;13.770;2022-07-30T11:33:29;26.70;44.40
65752;DHT22;52486;51.098;13.770;2022-07-30T11:36:04;26.70;44.40
65752;DHT22;52486;51.098;13.770;2022-07-30T11:38:48;26.70;44.50
65752;DHT22;52486;51.098;13.770;2022-07-30T11:41:14;26.70;44.40
65752;DHT22;52486;51.098;13.770;2022-07-30T11:43:40;26.70;44.40
65752;DHT22;52486;51.098;13.770;2022-07-30T11:46:13;26.70;44.40
65752;DHT22;52486;51.098;13.770;2022-07-30T11:48:40;26.70;44.40
65752;DHT22;52486;51.098;13.770;2022-07-30T11:51:06;26.70;44.40
65752;DHT22;52486;51.098;13.770;2022-07-30T11:53:32;26.70;44.40
65752;DHT22;52486;51.098;13.770;2022-07-30T11:55:59;26.70;44.40
65752;DHT22;52486;51.098;13.770;2022-07-30T11:58:28;26.70;44.40
65752;DHT22;52486;51.098;13.770;2022-07-30T12:00:55;26.70;44.40
65752;DHT22;52486;51.098;13.770;2022-07-30T12:03:21;26.70;44.30
65752;DHT22;52486;51.098;13.770;2022-07-30T12:05:47;26.70;44.40
65752;DHT22;52486;51.098;13.770;2022-07-30T12:08:13;26.70;44.30
65752;DHT22;52486;51.098;13.770;2022-07-30T12:10:41;26.70;44.40
65752;DHT22;52486;51.098;13.770;2022-07-30T12:15:34;26.70;44.40
65752;DHT22;52486;51.098;13.770;2022-07-30T12:18:00;26.70;44.40
65752;DHT22;52486;51.098;13.770;2022-07-30T12:20:26;26.70;44.40
65752;DHT22;52486;51.098;13.770;2022-07-30T12:22:52;26.70;44.30
65752;DHT22;52486;51.098;13.770;2022-07-30T12:25:18;26.70;44.30
65752;DHT22;52486;51.098;13.770;2022-07-30T12:27:44;26.70;44.30
65752;DHT22;52486;51.098;13.770;2022-07-30T12:30:11;26.70;44.30
65752;DHT22;52486;51.098;13.770;2022-07-30T12:32:37;26.70;44.30
65752;DHT22;52486;51.098;13.770;2022-07-30T12:35:02;26.70;44.20
65752;DHT22;52486;51.098;13.770;2022-07-30T12:37:28;26.70;44.20
65752;DHT22;52486;51.098;13.770;2022-07-30T12:40:12;26.80;44.20
65752;DHT22;52486;51.098;13.770;2022-07-30T12:42:50;26.70;44.20
65752;DHT22;52486;51.098;13.770;2022-07-30T12:45:26;26.80;44.30
65752;DHT22;52486;51.098;13.770;2022-07-30T12:47:52;26.80;44.30
65752;DHT22;52486;51.098;13.770;2022-07-30T12:50:18;26.80;44.20
65752;DHT22;52486;51.098;13.770;2022-07-30T12:52:47;26.80;44.90
65752;DHT22;52486;51.098;13.770;2022-07-30T12:55:12;26.80;44.20
65752;DHT22;52486;51.098;13.770;2022-07-30T12:57:51;26.80;44.20
65752;DHT22;52486;51.098;13.770;2022-07-30T13:00:17;26.90;44.30
65752;DHT22;52486;51.098;13.770;2022-07-30T13:02:42;26.80;44.20
65752;DHT22;52486;51.098;13.770;2022-07-30T13:05:08;26.80;44.20
65752;DHT22;52486;51.098;13.770;2022-07-30T13:07:33;26.80;44.20
65752;DHT22;52486;51.098;13.770;2022-07-30T13:10:10;26.80;44.10
65752;DHT22;52486;51.098;13.770;2022-07-30T13:12:36;26.80;44.00
65752;DHT22;52486;51.098;13.770;2022-07-30T13:15:03;26.90;44.20
65752;DHT22;52486;51.098;13.770;2022-07-30T13:17:29;26.80;44.10
65752;DHT22;52486;51.098;13.770;2022-07-30T13:19:54;26.90;44.20
65752;DHT22;52486;51.098;13.770;2022-07-30T13:22:20;26.90;44.20
65752;DHT22;52486;51.098;13.770;2022-07-30T13:24:45;26.90;44.10
65752;DHT22;52486;51.098;13.770;2022-07-30T13:27:11;26.90;44.20
65752;DHT22;52486;51.098;13.770;2022-07-30T13:29:37;26.90;44.10
65752;DHT22;52486;51.098;13.770;2022-07-30T13:32:02;26.90;44.10
65752;DHT22;52486;51.098;13.770;2022-07-30T13:34:28;26.90;44.10
65752;DHT22;52486;51.098;13.770;2022-07-30T13:36:53;26.90;44.10
65752;DHT22;52486;51.098;13.770;2022-07-30T13:39:19;26.90;44.10
65752;DHT22;52486;51.098;13.770;2022-07-30T13:41:44;26.90;44.10
65752;DHT22;52486;51.098;13.770;2022-07-30T13:44:10;26.90;44.10
65752;DHT22;52486;51.098;13.770;2022-07-30T13:46:35;26.90;44.10
65752;DHT22;52486;51.098;13.770;2022-07-30T13:49:02;26.90;44.10
65752;DHT22;52486;51.098;13.770;2022-07-30T13:51:28;26.90;44.10
65752;DHT22;52486;51.098;13.770;2022-07-30T13:53:54;26.90;44.10
65752;DHT22;52486;51.098;13.770;2022-07-30T13:56:19;26.90;44.00
65752;DHT22;52486;51.098;13.770;2022-07-30T13:58:45;26.90;44.00
65752;DHT22;52486;51.098;13.770;2022-07-30T14:01:11;26.90;44.10
65752;DHT22;52486;51.098;13.770;2022-07-30T14:03:37;26.90;44.00
65752;DHT22;52486;51.098;13.770;2022-07-30T14:06:02;26.90;44.00
65752;DHT22;52486;51.098;13.770;2022-07-30T14:08:28;27.00;44.10
65752;DHT22;52486;51.098;13.770;2022-07-30T14:10:56;26.90;44.00
65752;DHT22;52486;51.098;13.770;2022-07-30T14:13:22;26.90;44.00
65752;DHT22;52486;51.098;13.770;2022-07-30T14:15:48;26.90;44.00
65752;DHT22;52486;51.098;13.770;2022-07-30T14:18:14;27.00;44.10
65752;DHT22;52486;51.098;13.770;2022-07-30T14:20:39;27.00;44.10
65752;DHT22;52486;51.098;13.770;2022-07-30T14:23:05;27.00;44.10
65752;DHT22;52486;51.098;13.770;2022-07-30T14:25:31;27.00;44.00
65752;DHT22;52486;51.098;13.770;2022-07-30T14:27:56;27.00;44.00
65752;DHT22;52486;51.098;13.770;2022-07-30T14:30:22;27.00;44.00
65752;DHT22;52486;51.098;13.770;2022-07-30T14:32:49;27.00;44.00
65752;DHT22;52486;51.098;13.770;2022-07-30T14:35:14;27.00;44.00
65752;DHT22;52486;51.098;13.770;2022-07-30T14:37:40;27.00;44.00
65752;DHT22;52486;51.098;13.770;2022-07-30T14:40:06;27.00;44.00
65752;DHT22;52486;51.098;13.770;2022-07-30T14:42:32;27.00;44.00
65752;DHT22;52486;51.098;13.770;2022-07-30T14:44:57;27.00;44.00
65752;DHT22;52486;51.098;13.770;2022-07-30T14:47:23;27.00;44.00
65752;DHT22;52486;51.098;13.770;2022-07-30T14:49:48;27.00;44.00
65752;DHT22;52486;51.098;13.770;2022-07-30T14:52:14;27.00;44.00
65752;DHT22;52486;51.098;13.770;2022-07-30T14:54:40;27.00;44.00
65752;DHT22;52486;51.098;13.770;2022-07-30T14:57:05;27.00;44.00
65752;DHT22;52486;51.098;13.770;2022-07-30T14:59:33;27.10;44.00
65752;DHT22;52486;51.098;13.770;2022-07-30T15:01:58;27.10;44.00
65752;DHT22;52486;51.098;13.770;2022-07-30T15:04:24;27.10;44.00
65752;DHT22;52486;51.098;13.770;2022-07-30T15:06:49;27.10;44.10
65752;DHT22;52486;51.098;13.770;2022-07-30T15:09:15;27.10;44.00
65752;DHT22;52486;51.098;13.770;2022-07-30T15:11:41;27.10;44.10
65752;DHT22;52486;51.098;13.770;2022-07-30T15:14:06;27.10;44.00
65752;DHT22;52486;51.098;13.770;2022-07-30T15:16:32;27.10;44.00
65752;DHT22;52486;51.098;13.770;2022-07-30T15:18:57;27.10;44.10
65752;DHT22;52486;51.098;13.770;2022-07-30T15:21:23;27.10;44.00
65752;DHT22;52486;51.098;13.770;2022-07-30T15:23:49;27.10;44.00
65752;DHT22;52486;51.098;13.770;2022-07-30T15:26:14;27.10;44.00
65752;DHT22;52486;51.098;13.770;2022-07-30T15:28:40;27.10;43.90
65752;DHT22;52486;51.098;13.770;2022-07-30T15:31:06;27.10;44.00